createdAt,value
2022-12-22T00:01:54.379Z,18.23
2022-12-22T00:04:55.683Z,16.10
2022-12-22T00:07:45.115Z,15.63
2022-12-22T00:10:55.833Z,17.88
2022-12-22T00:13:58.286Z,14.60
2022-12-22T00:16:53.492Z,15.82
2022-12-22T00:19:40.167Z,16.00
2022-12-22T00:22:53.064Z,16.60
2022-12-22T00:25:40.046Z,16.13
2022-12-22T00:28:33.938Z,16.58
2022-12-22T00:31:20.465Z,15.85
2022-12-22T00:34:07.353Z,16.15
2022-12-22T00:36:53.964Z,17.80
2022-12-22T00:39:40.823Z,16.48
2022-12-22T00:42:28.542Z,16.83
2022-12-22T00:45:15.293Z,15.85
2022-12-22T00:48:03.733Z,14.35
2022-12-22T00:50:55.527Z,16.00
2022-12-22T00:53:42.557Z,13.40
2022-12-22T00:56:30.024Z,12.13
2022-12-22T00:59:18.926Z,18.90
2022-12-22T01:02:05.924Z,17.33
2022-12-22T01:04:52.490Z,15.00
2022-12-22T01:07:44.762Z,15.20
2022-12-22T01:10:35.337Z,15.27
2022-12-22T01:13:22.133Z,14.23
2022-12-22T01:16:08.760Z,17.90
2022-12-22T01:18:55.697Z,19.80
2022-12-22T01:21:42.178Z,14.20
2022-12-22T01:24:34.391Z,21.27
2022-12-22T01:27:21.261Z,20.15
2022-12-22T01:30:07.851Z,17.88
2022-12-22T01:32:54.275Z,22.33
2022-12-22T01:35:46.474Z,22.48
2022-12-22T01:38:33.472Z,16.88
2022-12-22T01:41:22.359Z,15.55
2022-12-22T01:44:09.888Z,16.75
2022-12-22T01:47:02.529Z,14.38
2022-12-22T01:49:57.337Z,14.90
2022-12-22T01:52:49.907Z,18.65
2022-12-22T01:55:42.477Z,18.40
2022-12-22T01:58:37.327Z,21.70
2022-12-22T02:01:23.885Z,21.23
2022-12-22T02:04:10.623Z,26.42
2022-12-22T02:07:00.995Z,17.60
2022-12-22T02:10:03.373Z,20.17
2022-12-22T02:12:59.140Z,23.45
2022-12-22T02:15:52.797Z,22.52
2022-12-22T02:19:04.256Z,26.48
2022-12-22T02:22:03.771Z,28.50
2022-12-22T02:25:05.656Z,29.40
2022-12-22T02:30:40.933Z,27.58
2022-12-22T02:33:28.539Z,30.77
2022-12-22T02:36:39.979Z,32.17
2022-12-22T02:39:57.742Z,31.42
2022-12-22T02:43:06.809Z,32.17
2022-12-22T02:46:24.727Z,29.90
2022-12-22T02:49:36.323Z,29.63
2022-12-22T02:52:40.822Z,31.05
2022-12-22T02:55:27.705Z,28.10
2022-12-22T02:58:18.267Z,33.03
2022-12-22T03:01:05.208Z,32.03
2022-12-22T03:03:51.973Z,31.48
2022-12-22T03:06:38.667Z,34.45
2022-12-22T03:09:25.175Z,32.55
2022-12-22T03:12:11.672Z,30.77
2022-12-22T03:14:58.736Z,25.88
2022-12-22T03:17:45.257Z,30.98
2022-12-22T03:20:32.265Z,34.05
2022-12-22T03:23:24.444Z,27.55
2022-12-22T03:25:55.524Z,34.28
2022-12-22T03:28:28.148Z,26.27
2022-12-22T03:31:06.906Z,30.75
2022-12-22T03:33:35.455Z,20.60
2022-12-22T03:36:05.118Z,24.83
2022-12-22T03:38:33.437Z,22.50
2022-12-22T03:41:01.840Z,31.08
2022-12-22T03:43:48.769Z,29.83
2022-12-22T03:46:33.971Z,31.60
2022-12-22T03:49:12.921Z,34.10
2022-12-22T03:51:46.446Z,20.77
2022-12-22T03:54:20.366Z,28.23
2022-12-22T03:56:49.759Z,29.75
2022-12-22T03:59:18.772Z,30.63
2022-12-22T04:01:56.166Z,30.58
2022-12-22T04:04:27.491Z,29.55
2022-12-22T04:06:56.343Z,26.23
2022-12-22T04:09:25.706Z,28.08
2022-12-22T04:12:12.767Z,23.58
2022-12-22T04:14:41.088Z,20.73
2022-12-22T04:17:10.567Z,22.77
2022-12-22T04:19:38.956Z,14.98
2022-12-22T04:22:08.130Z,30.45
2022-12-22T04:24:36.426Z,30.38
2022-12-22T04:27:05.048Z,31.33
2022-12-22T04:29:33.319Z,20.45
2022-12-22T04:32:01.659Z,31.83
2022-12-22T04:34:30.140Z,13.48
2022-12-22T04:37:07.101Z,13.32
2022-12-22T04:39:41.234Z,13.60
2022-12-22T04:42:10.731Z,26.25
2022-12-22T04:44:38.996Z,25.80
2022-12-22T04:47:07.337Z,23.25
2022-12-22T04:49:35.652Z,25.88
2022-12-22T04:52:03.989Z,21.65
2022-12-22T04:54:32.777Z,24.75
2022-12-22T04:57:01.329Z,18.13
2022-12-22T04:59:29.668Z,19.00
2022-12-22T05:01:58.221Z,14.88
2022-12-22T05:04:26.682Z,12.98
2022-12-22T05:06:54.946Z,15.90
2022-12-22T05:09:23.254Z,12.23
2022-12-22T05:11:51.622Z,18.27
2022-12-22T05:14:19.963Z,14.05
2022-12-22T05:16:48.572Z,20.45
2022-12-22T05:19:17.022Z,13.27
2022-12-22T05:21:45.404Z,31.98
2022-12-22T05:24:14.560Z,14.00
2022-12-22T05:26:42.900Z,15.02
2022-12-22T05:29:11.171Z,28.58
2022-12-22T05:31:43.325Z,21.88
2022-12-22T05:34:15.354Z,11.25
2022-12-22T05:36:43.678Z,12.35
2022-12-22T05:39:12.024Z,12.52
2022-12-22T05:41:41.301Z,25.35
2022-12-22T05:44:09.694Z,11.60
2022-12-22T05:46:38.074Z,17.33
2022-12-22T05:49:06.393Z,19.83
2022-12-22T05:51:34.706Z,11.73
2022-12-22T05:54:02.988Z,12.65
2022-12-22T05:56:31.289Z,11.00
2022-12-22T05:58:59.593Z,11.43
2022-12-22T06:01:27.959Z,12.20
2022-12-22T06:04:00.041Z,10.85
2022-12-22T06:06:29.414Z,11.27
2022-12-22T06:08:57.748Z,26.92
2022-12-22T06:11:26.079Z,25.27
2022-12-22T06:13:54.535Z,32.38
2022-12-22T06:16:23.047Z,13.82
2022-12-22T06:18:51.531Z,16.20
2022-12-22T06:21:19.854Z,12.20
2022-12-22T06:23:48.192Z,24.50
2022-12-22T06:26:16.431Z,21.98
2022-12-22T06:28:44.710Z,29.83
2022-12-22T06:31:13.119Z,31.17
2022-12-22T06:33:41.462Z,25.15
2022-12-22T06:36:10.496Z,27.25
2022-12-22T06:38:38.974Z,18.42
2022-12-22T06:41:07.376Z,23.35
2022-12-22T06:43:35.813Z,12.82
2022-12-22T06:46:04.162Z,27.90
2022-12-22T06:48:32.490Z,26.40
2022-12-22T06:51:01.510Z,17.25
2022-12-22T06:53:29.810Z,12.75
2022-12-22T06:55:58.103Z,10.98
2022-12-22T06:58:26.393Z,11.13
2022-12-22T07:00:57.673Z,17.00
2022-12-22T07:03:26.134Z,25.20
2022-12-22T07:05:54.606Z,13.25
2022-12-22T07:08:22.960Z,14.18
2022-12-22T07:11:00.144Z,12.75
2022-12-22T07:13:34.982Z,11.50
2022-12-22T07:16:05.008Z,11.68
2022-12-22T07:18:36.138Z,12.93
2022-12-22T07:21:06.671Z,14.30
2022-12-22T07:23:35.834Z,13.27
2022-12-22T07:26:05.595Z,13.77
2022-12-22T07:28:35.328Z,12.70
2022-12-22T07:31:04.419Z,15.43
2022-12-22T07:33:33.471Z,37.25
2022-12-22T07:36:10.478Z,24.58
2022-12-22T07:38:41.633Z,31.17
2022-12-22T07:41:29.765Z,31.65
2022-12-22T07:44:00.634Z,34.17
2022-12-22T07:46:31.587Z,38.70
2022-12-22T07:49:18.205Z,28.85
2022-12-22T07:51:47.052Z,31.10
2022-12-22T07:54:16.513Z,35.97
2022-12-22T07:56:46.412Z,39.25
2022-12-22T07:59:15.040Z,42.15
2022-12-22T08:01:44.213Z,37.70
2022-12-22T08:04:13.705Z,38.00
2022-12-22T08:06:42.785Z,35.45
2022-12-22T08:09:14.879Z,13.20
2022-12-22T08:11:43.398Z,15.25
2022-12-22T08:14:11.822Z,25.58
2022-12-22T08:16:40.302Z,14.68
2022-12-22T08:19:08.927Z,37.20
2022-12-22T08:21:37.421Z,39.45
2022-12-22T08:24:06.104Z,38.33
2022-12-22T08:26:42.636Z,23.42
2022-12-22T08:29:18.352Z,37.05
2022-12-22T08:31:47.161Z,34.78
2022-12-22T08:34:17.680Z,33.33
2022-12-22T08:36:53.188Z,39.13
2022-12-22T08:39:24.704Z,23.35
2022-12-22T08:44:32.129Z,41.22
2022-12-22T08:47:01.427Z,39.90
2022-12-22T08:49:29.875Z,40.15
2022-12-22T08:51:58.660Z,39.88
2022-12-22T08:54:27.061Z,41.08
2022-12-22T08:56:55.571Z,42.75
2022-12-22T08:59:23.940Z,48.20
2022-12-22T09:01:52.447Z,39.35
2022-12-22T09:04:22.785Z,41.83
2022-12-22T09:06:54.346Z,44.13
2022-12-22T09:11:50.858Z,40.47
2022-12-22T09:14:19.281Z,45.38
2022-12-22T09:16:47.760Z,40.65
2022-12-22T09:19:16.109Z,42.22
2022-12-22T09:21:45.876Z,45.80
2022-12-22T09:24:15.143Z,45.75
2022-12-22T09:26:43.914Z,45.30
2022-12-22T09:29:12.519Z,47.42
2022-12-22T09:31:42.481Z,52.95
2022-12-22T09:34:17.057Z,27.17
2022-12-22T09:36:45.821Z,51.15
2022-12-22T09:39:14.353Z,50.38
2022-12-22T09:41:55.120Z,48.17
2022-12-22T09:44:41.723Z,45.87
2022-12-22T09:47:20.122Z,52.08
2022-12-22T09:49:49.008Z,50.38
2022-12-22T09:53:03.067Z,45.65
2022-12-22T09:55:42.077Z,53.13
2022-12-22T09:58:25.678Z,45.30
2022-12-22T10:01:37.324Z,46.72
2022-12-22T10:04:18.471Z,18.52
2022-12-22T10:07:13.108Z,45.95
2022-12-22T10:09:50.726Z,45.95
2022-12-22T10:12:23.205Z,52.78
2022-12-22T10:14:54.724Z,52.30
2022-12-22T10:19:55.846Z,43.88
2022-12-22T10:22:31.902Z,54.35
2022-12-22T10:25:04.996Z,57.03
2022-12-22T10:27:42.921Z,53.13
2022-12-22T10:30:26.252Z,56.35
2022-12-22T10:33:13.190Z,54.75
2022-12-22T10:35:52.292Z,54.03
2022-12-22T10:38:28.371Z,55.88
2022-12-22T10:41:03.900Z,18.50
2022-12-22T10:43:40.001Z,16.80
2022-12-22T10:46:08.825Z,35.08
2022-12-22T10:48:39.415Z,43.63
2022-12-22T10:51:10.839Z,47.60
2022-12-22T10:53:52.797Z,62.42
2022-12-22T10:56:31.037Z,19.48
2022-12-22T10:59:24.805Z,41.72
2022-12-22T11:01:53.290Z,22.50
2022-12-22T11:04:27.477Z,19.77
2022-12-22T11:06:59.673Z,65.80
2022-12-22T11:09:35.788Z,37.28
2022-12-22T11:12:10.175Z,48.17
2022-12-22T11:15:02.374Z,19.05
2022-12-22T11:17:52.275Z,38.13
2022-12-22T11:20:50.084Z,56.75
2022-12-22T11:23:45.379Z,46.72
2022-12-22T11:26:28.216Z,34.42
2022-12-22T11:29:25.386Z,60.22
2022-12-22T11:32:26.968Z,59.58
2022-12-22T11:35:01.243Z,59.67
2022-12-22T11:38:02.645Z,26.05
2022-12-22T11:40:49.929Z,49.45
2022-12-22T11:43:40.585Z,62.90
2022-12-22T11:46:22.847Z,34.47
2022-12-22T11:49:47.790Z,23.13
2022-12-22T11:52:40.156Z,19.58
2022-12-22T11:55:21.813Z,27.63
2022-12-22T12:00:37.264Z,22.95
2022-12-22T12:03:37.601Z,39.63
2022-12-22T12:06:28.932Z,33.08
2022-12-22T12:09:21.244Z,42.75
2022-12-22T12:12:21.440Z,56.47
2022-12-22T12:15:17.685Z,56.08
2022-12-22T12:18:08.827Z,57.88
2022-12-22T12:20:43.513Z,61.97
2022-12-22T12:23:47.191Z,66.10
2022-12-22T12:26:31.991Z,61.17
2022-12-22T12:29:21.925Z,53.47
2022-12-22T12:32:08.378Z,54.88
2022-12-22T12:34:43.006Z,63.03
2022-12-22T12:37:27.284Z,36.67
2022-12-22T12:40:28.540Z,61.30
2022-12-22T12:42:58.899Z,51.10
2022-12-22T12:45:46.199Z,57.25
2022-12-22T12:48:23.916Z,60.75
2022-12-22T12:50:59.839Z,59.53
2022-12-22T12:53:30.271Z,52.80
2022-12-22T12:56:17.535Z,47.38
2022-12-22T12:58:46.038Z,51.65
2022-12-22T13:01:54.368Z,51.15
2022-12-22T13:04:59.529Z,58.25
2022-12-22T13:08:04.354Z,65.25
2022-12-22T13:10:35.051Z,43.45
2022-12-22T13:13:03.643Z,54.30
2022-12-22T13:15:35.345Z,60.33
2022-12-22T13:18:09.162Z,75.30
2022-12-22T13:20:39.872Z,74.10
2022-12-22T13:23:16.873Z,62.60
2022-12-22T13:26:03.823Z,60.45
2022-12-22T13:28:32.158Z,68.50
2022-12-22T13:31:19.600Z,67.72
2022-12-22T13:33:53.464Z,61.97
2022-12-22T13:36:28.130Z,67.63
2022-12-22T13:39:14.984Z,69.15
2022-12-22T13:41:47.563Z,66.43
2022-12-22T13:44:32.995Z,63.45
2022-12-22T13:47:13.947Z,60.78
2022-12-22T13:50:07.739Z,72.03
2022-12-22T13:52:32.859Z,59.75
2022-12-22T13:55:02.331Z,61.15
2022-12-22T13:57:30.663Z,58.40
2022-12-22T13:59:58.996Z,54.85
2022-12-22T14:02:34.039Z,56.03
2022-12-22T14:05:11.821Z,57.33
2022-12-22T14:07:40.415Z,55.92
2022-12-22T14:10:09.371Z,57.17
2022-12-22T14:12:44.216Z,61.25
2022-12-22T14:15:21.939Z,51.88
2022-12-22T14:17:53.168Z,55.78
2022-12-22T14:23:03.208Z,57.00
2022-12-22T14:25:35.703Z,63.47
2022-12-22T14:28:13.886Z,63.10
2022-12-22T14:30:49.406Z,60.38
2022-12-22T14:33:30.992Z,59.13
2022-12-22T14:36:26.566Z,60.97
2022-12-22T14:39:05.390Z,62.40
2022-12-22T14:41:45.175Z,59.90
2022-12-22T14:44:19.841Z,61.55
2022-12-22T14:47:13.530Z,59.95
2022-12-22T14:49:58.726Z,62.22
2022-12-22T14:52:44.896Z,60.58
2022-12-22T14:55:34.824Z,58.88
2022-12-22T14:58:13.457Z,56.85
2022-12-22T15:00:53.516Z,59.00
2022-12-22T15:03:40.811Z,57.83
2022-12-22T15:06:27.374Z,60.15
2022-12-22T15:09:12.749Z,60.45
2022-12-22T15:11:45.529Z,56.55
2022-12-22T15:14:20.789Z,55.53
2022-12-22T15:16:51.927Z,56.65
2022-12-22T15:19:23.687Z,61.42
2022-12-22T15:21:52.767Z,59.10
2022-12-22T15:24:21.215Z,59.28
2022-12-22T15:26:49.694Z,60.10
2022-12-22T15:29:18.014Z,59.55
2022-12-22T15:31:46.430Z,53.95
2022-12-22T15:34:28.586Z,56.88
2022-12-22T15:36:56.953Z,59.17
2022-12-22T15:39:25.474Z,52.30
2022-12-22T15:41:53.740Z,54.92
2022-12-22T15:44:23.243Z,53.90
2022-12-22T15:46:56.654Z,54.15
2022-12-22T15:49:28.069Z,59.65
2022-12-22T15:52:00.130Z,52.70
2022-12-22T15:54:31.814Z,53.80
2022-12-22T15:57:01.137Z,53.90
2022-12-22T15:59:30.292Z,55.35
2022-12-22T16:02:01.862Z,51.75
2022-12-22T16:04:31.092Z,52.03
2022-12-22T16:07:00.706Z,51.88
2022-12-22T16:09:38.918Z,51.97
2022-12-22T16:12:18.572Z,50.72
2022-12-22T16:14:50.807Z,52.47
2022-12-22T16:17:21.716Z,52.90
2022-12-22T16:19:50.449Z,50.73
2022-12-22T16:22:23.140Z,54.30
2022-12-22T16:27:39.562Z,55.38
2022-12-22T16:30:12.437Z,52.30
2022-12-22T16:32:40.922Z,52.75
2022-12-22T16:35:12.272Z,51.53
2022-12-22T16:37:40.519Z,52.90
2022-12-22T16:40:10.789Z,49.95
2022-12-22T16:45:30.603Z,55.05
2022-12-22T16:48:06.410Z,50.17
2022-12-22T16:50:35.084Z,57.72
2022-12-22T16:53:06.115Z,52.40
2022-12-22T16:55:36.650Z,49.72
2022-12-22T16:58:12.928Z,50.22
2022-12-22T17:00:44.946Z,58.35
2022-12-22T17:03:17.703Z,53.67
2022-12-22T17:05:53.377Z,57.58
2022-12-22T17:08:31.732Z,53.03
2022-12-22T17:11:10.065Z,49.83
2022-12-22T17:13:39.960Z,53.78
2022-12-22T17:16:09.850Z,52.58
2022-12-22T17:18:38.440Z,52.00
2022-12-22T17:21:06.769Z,49.70
2022-12-22T17:23:41.416Z,45.58
2022-12-22T17:26:12.645Z,49.10
2022-12-22T17:28:43.093Z,47.97
2022-12-22T17:31:23.185Z,47.92
2022-12-22T17:33:51.976Z,45.63
2022-12-22T17:36:34.433Z,49.47
2022-12-22T17:39:03.750Z,47.42
2022-12-22T17:41:33.181Z,45.45
2022-12-22T17:44:01.464Z,48.78
2022-12-22T17:46:29.858Z,44.83
2022-12-22T17:48:58.209Z,45.85
2022-12-22T17:51:30.171Z,45.47
2022-12-22T17:53:59.821Z,44.50
2022-12-22T17:56:30.340Z,44.00
2022-12-22T17:58:58.992Z,46.92
2022-12-22T18:01:33.438Z,46.75
2022-12-22T18:04:01.805Z,43.83
2022-12-22T18:06:35.581Z,47.42
2022-12-22T18:09:04.797Z,51.40
2022-12-22T18:11:33.397Z,46.95
2022-12-22T18:14:02.144Z,51.90
2022-12-22T18:16:30.537Z,50.80
2022-12-22T18:18:59.065Z,47.58
2022-12-22T18:21:27.781Z,56.80
2022-12-22T18:23:56.110Z,51.10
2022-12-22T18:26:33.603Z,49.00
2022-12-22T18:29:02.696Z,49.55
2022-12-22T18:31:31.090Z,51.42
2022-12-22T18:33:59.338Z,52.55
2022-12-22T18:36:31.940Z,48.60
2022-12-22T18:39:02.113Z,47.47
2022-12-22T18:41:37.948Z,41.85
2022-12-22T18:44:07.690Z,45.33
2022-12-22T18:46:57.714Z,43.70
2022-12-22T18:49:42.171Z,45.28
2022-12-22T18:52:22.201Z,43.80
2022-12-22T18:54:54.117Z,44.33
2022-12-22T18:57:22.488Z,46.20
2022-12-22T18:59:50.762Z,45.50
2022-12-22T19:02:26.907Z,47.03
2022-12-22T19:04:56.454Z,56.40
2022-12-22T19:07:26.555Z,51.15
2022-12-22T19:09:57.647Z,54.53
2022-12-22T19:12:29.018Z,53.30
2022-12-22T19:15:06.542Z,55.13
2022-12-22T19:17:34.970Z,51.53
2022-12-22T19:20:06.507Z,51.58
2022-12-22T19:25:05.923Z,50.95
2022-12-22T19:27:39.545Z,53.05
2022-12-22T19:30:25.266Z,52.85
2022-12-22T19:33:03.446Z,55.20
2022-12-22T19:35:33.514Z,53.55
2022-12-22T19:38:19.046Z,52.72
2022-12-22T19:40:48.508Z,54.38
2022-12-22T19:43:18.355Z,53.00
2022-12-22T19:45:51.109Z,51.75
2022-12-22T19:48:22.391Z,49.58
2022-12-22T19:50:52.524Z,47.88
2022-12-22T19:53:33.513Z,46.55
2022-12-22T19:56:01.884Z,49.97
2022-12-22T19:58:38.820Z,43.58
2022-12-22T20:01:12.393Z,46.88
2022-12-22T20:03:40.783Z,43.80
2022-12-22T20:06:11.655Z,45.90
2022-12-22T20:08:40.411Z,40.88
2022-12-22T20:11:20.497Z,42.35
2022-12-22T20:13:49.584Z,43.33
2022-12-22T20:16:18.647Z,42.55
2022-12-22T20:18:47.569Z,41.47
2022-12-22T20:21:27.836Z,41.78
2022-12-22T20:23:57.945Z,40.35
2022-12-22T20:26:28.389Z,43.78
2022-12-22T20:28:56.690Z,43.22
2022-12-22T20:31:25.885Z,44.50
2022-12-22T20:33:55.806Z,43.35
2022-12-22T20:36:30.437Z,46.30
2022-12-22T20:39:00.440Z,44.33
2022-12-22T20:41:29.755Z,45.25
2022-12-22T20:43:58.875Z,48.05
2022-12-22T20:46:31.203Z,40.17
2022-12-22T20:49:05.275Z,44.00
2022-12-22T20:51:35.143Z,43.60
2022-12-22T20:54:03.464Z,42.38
2022-12-22T20:56:40.922Z,42.85
2022-12-22T20:59:21.829Z,41.55
2022-12-22T21:01:53.055Z,40.25
2022-12-22T21:04:22.920Z,43.47
2022-12-22T21:06:53.717Z,44.70
2022-12-22T21:09:22.423Z,44.75
2022-12-22T21:11:51.123Z,43.97
2022-12-22T21:14:19.550Z,48.55
2022-12-22T21:16:47.798Z,39.28
2022-12-22T21:19:18.947Z,41.22
2022-12-22T21:21:47.823Z,42.80
2022-12-22T21:24:16.261Z,42.70
2022-12-22T21:26:50.585Z,41.80
2022-12-22T21:29:25.244Z,40.03
2022-12-22T21:31:53.734Z,38.97
2022-12-22T21:34:22.072Z,39.47
2022-12-22T21:36:56.258Z,39.63
2022-12-22T21:39:42.458Z,39.55
2022-12-22T21:42:16.916Z,40.35
2022-12-22T21:44:46.160Z,44.78
2022-12-22T21:47:17.794Z,40.53
2022-12-22T21:49:46.270Z,38.08
2022-12-22T21:52:14.469Z,40.40
2022-12-22T21:54:42.971Z,41.03
2022-12-22T21:57:17.117Z,39.25
2022-12-22T21:59:45.428Z,37.22
2022-12-22T22:02:19.768Z,42.83
2022-12-22T22:04:54.252Z,38.80
2022-12-22T22:07:23.527Z,37.42
2022-12-22T22:09:51.856Z,39.80
2022-12-22T22:12:37.255Z,36.55
2022-12-22T22:15:07.650Z,36.85
2022-12-22T22:17:35.929Z,36.67
2022-12-22T22:20:06.615Z,39.58
2022-12-22T22:22:35.184Z,37.78
2022-12-22T22:25:03.638Z,34.30
2022-12-22T22:27:31.968Z,36.92
2022-12-22T22:30:00.408Z,34.35
2022-12-22T22:32:28.836Z,36.00
2022-12-22T22:34:57.161Z,35.10
2022-12-22T22:37:25.840Z,36.53
2022-12-22T22:39:54.161Z,35.80
2022-12-22T22:42:22.615Z,37.47
2022-12-22T22:44:50.958Z,36.17
2022-12-22T22:47:19.215Z,34.58
2022-12-22T22:49:47.454Z,38.63
2022-12-22T22:52:16.597Z,35.95
2022-12-22T22:54:45.052Z,37.65
2022-12-22T22:57:13.489Z,37.97
2022-12-22T22:59:41.810Z,36.38
2022-12-22T23:02:11.793Z,36.40
2022-12-22T23:04:40.172Z,37.58
2022-12-22T23:07:08.447Z,35.35
2022-12-22T23:09:36.668Z,37.22
2022-12-22T23:12:05.377Z,33.33
2022-12-22T23:14:33.792Z,37.00
2022-12-22T23:17:02.138Z,36.33
2022-12-22T23:19:30.428Z,37.35
2022-12-22T23:21:59.046Z,33.00
2022-12-22T23:24:27.489Z,31.67
2022-12-22T23:26:55.741Z,35.50
2022-12-22T23:29:24.123Z,33.78
2022-12-22T23:31:52.441Z,35.00
2022-12-22T23:34:21.234Z,32.45
2022-12-22T23:36:49.547Z,35.00
2022-12-22T23:39:18.131Z,35.72
2022-12-22T23:41:47.272Z,34.60
2022-12-22T23:44:15.490Z,33.83
2022-12-22T23:46:43.782Z,36.55
2022-12-22T23:49:13.470Z,35.05
2022-12-22T23:51:41.765Z,31.63
2022-12-22T23:54:09.965Z,35.80
2022-12-22T23:56:38.262Z,34.42
2022-12-22T23:59:06.534Z,34.45
